createdAt,value
2022-10-11T00:02:43.447Z,0
2022-10-11T00:09:03.499Z,0
2022-10-11T00:15:26.397Z,0
2022-10-11T00:21:46.329Z,0
2022-10-11T00:28:09.431Z,0
2022-10-11T00:34:29.398Z,0
2022-10-11T00:40:52.563Z,0
2022-10-11T00:47:12.474Z,0
2022-10-11T00:53:35.600Z,0
2022-10-11T00:59:55.476Z,0
2022-10-11T01:06:18.503Z,0
2022-10-11T01:12:38.454Z,0
2022-10-11T01:19:01.436Z,0
2022-10-11T01:25:21.416Z,0
2022-10-11T01:31:44.479Z,0
2022-10-11T01:38:04.372Z,0
2022-10-11T01:44:27.332Z,0
2022-10-11T01:50:47.369Z,0
2022-10-11T01:57:10.443Z,0
2022-10-11T02:03:30.480Z,0
2022-10-11T02:09:53.470Z,0
2022-10-11T02:16:13.496Z,0
2022-10-11T02:22:36.421Z,0
2022-10-11T02:28:56.497Z,0
2022-10-11T02:35:19.354Z,0
2022-10-11T02:41:39.323Z,0
2022-10-11T02:48:02.399Z,0
2022-10-11T02:54:22.469Z,0
2022-10-11T03:00:45.471Z,0
2022-10-11T03:07:05.356Z,0
2022-10-11T03:13:28.342Z,0
2022-10-11T03:36:51.880Z,0
2022-10-11T03:43:11.310Z,0
2022-10-11T03:49:34.351Z,0
2022-10-11T03:55:54.346Z,0
2022-10-11T04:02:17.451Z,0
2022-10-11T04:08:37.422Z,0
2022-10-11T04:15:00.502Z,0
2022-10-11T04:21:20.359Z,0
2022-10-11T04:27:43.329Z,0
2022-10-11T04:34:03.411Z,0
2022-10-11T04:40:26.390Z,0
2022-10-11T04:46:46.417Z,0
2022-10-11T04:53:09.358Z,0
2022-10-11T04:59:29.322Z,0
2022-10-11T05:05:52.465Z,0
2022-10-11T05:12:12.354Z,0
2022-10-11T05:18:35.401Z,1
2022-10-11T05:24:55.423Z,1
2022-10-11T05:31:18.354Z,4
2022-10-11T05:37:38.386Z,11
2022-10-11T05:44:01.361Z,22
2022-10-11T05:50:24.248Z,47
2022-10-11T05:56:44.472Z,79
2022-10-11T06:03:04.457Z,116
2022-10-11T06:09:27.442Z,150
2022-10-11T06:15:47.331Z,199
2022-10-11T06:22:10.449Z,259
2022-10-11T06:28:30.408Z,296
2022-10-11T06:34:53.364Z,344
2022-10-11T06:41:13.377Z,413
2022-10-11T06:47:36.475Z,480
2022-10-11T06:53:56.380Z,501
2022-10-11T07:00:19.348Z,604
2022-10-11T07:06:39.393Z,644
2022-10-11T07:13:02.409Z,781
2022-10-11T07:19:22.463Z,780
2022-10-11T07:25:45.528Z,866
2022-10-11T07:32:05.360Z,843
2022-10-11T07:38:28.359Z,1227
2022-10-11T07:44:48.475Z,1382
2022-10-11T07:51:11.436Z,1623
2022-10-11T07:57:31.425Z,1684
2022-10-11T08:03:54.371Z,1839
2022-10-11T08:10:14.459Z,1891
2022-10-11T08:16:37.409Z,1800
2022-10-11T08:22:57.385Z,1811
2022-10-11T08:46:38.359Z,1712
2022-10-11T08:53:01.331Z,1764
2022-10-11T08:59:21.420Z,1641
2022-10-11T09:05:44.518Z,1767
2022-10-11T09:12:04.354Z,1933
2022-10-11T09:18:27.459Z,2410
2022-10-11T09:24:47.453Z,2418
2022-10-11T09:31:10.369Z,2484
2022-10-11T09:37:30.418Z,2580
2022-10-11T09:43:53.407Z,3012
2022-10-11T09:50:13.609Z,3574
2022-10-11T09:56:36.661Z,3012
2022-10-11T10:02:56.363Z,3089
2022-10-11T10:09:19.388Z,3577
2022-10-11T10:15:39.341Z,3845
2022-10-11T10:22:02.396Z,4004
2022-10-11T10:28:22.447Z,3713
2022-10-11T10:34:45.338Z,3594
2022-10-11T10:41:05.434Z,3643
2022-10-11T10:47:28.404Z,3732
2022-10-11T10:53:48.406Z,4002
2022-10-11T11:00:11.385Z,4081
2022-10-11T11:06:32.849Z,4194
2022-10-11T11:12:54.394Z,4293
2022-10-11T11:19:14.379Z,4445
2022-10-11T11:25:40.285Z,4453
2022-10-11T11:31:57.341Z,4713
2022-10-11T11:38:20.402Z,4879
2022-10-11T11:44:40.356Z,5001
2022-10-11T11:51:03.699Z,5194
2022-10-11T11:57:23.415Z,5936
2022-10-11T12:03:46.377Z,6044
2022-10-11T12:10:06.424Z,6762
2022-10-11T12:16:29.398Z,6648
2022-10-11T12:22:49.380Z,6502
2022-10-11T12:29:12.405Z,6066
2022-10-11T12:35:32.359Z,5314
2022-10-11T12:41:55.402Z,3126
2022-10-11T12:48:15.389Z,3993
2022-10-11T12:54:38.417Z,1755
2022-10-11T13:00:58.420Z,1592
2022-10-11T13:07:21.376Z,3576
2022-10-11T13:13:41.391Z,3088
2022-10-11T13:20:04.421Z,2035
2022-10-11T13:26:24.410Z,2853
2022-10-11T13:32:47.396Z,2270
2022-10-11T13:39:07.411Z,2101
2022-10-11T13:45:30.435Z,2168
2022-10-11T14:08:36.878Z,1652
2022-10-11T14:14:56.359Z,1612
2022-10-11T14:21:19.418Z,1530
2022-10-11T14:27:39.395Z,1465
2022-10-11T14:34:02.430Z,1429
2022-10-11T14:40:22.453Z,1373
2022-10-11T14:46:45.416Z,1482
2022-10-11T14:53:05.337Z,1399
2022-10-11T14:59:28.335Z,1308
2022-10-11T15:05:48.412Z,1259
2022-10-11T15:12:11.344Z,1182
2022-10-11T15:18:31.342Z,1066
2022-10-11T15:24:54.407Z,962
2022-10-11T15:31:14.342Z,906
2022-10-11T15:37:37.621Z,862
2022-10-11T15:43:57.371Z,806
2022-10-11T15:50:20.393Z,743
2022-10-11T15:56:40.333Z,683
2022-10-11T16:03:03.441Z,617
2022-10-11T16:09:23.326Z,548
2022-10-11T16:15:46.401Z,473
2022-10-11T16:22:06.382Z,396
2022-10-11T16:28:29.418Z,313
2022-10-11T16:34:49.404Z,231
2022-10-11T16:41:12.378Z,156
2022-10-11T16:47:32.426Z,95
2022-10-11T16:53:55.353Z,51
2022-10-11T17:00:15.379Z,23
2022-10-11T17:06:38.384Z,9
2022-10-11T17:12:58.340Z,3
2022-10-11T17:19:21.434Z,1
2022-10-11T17:25:41.343Z,0
2022-10-11T17:32:04.439Z,0
2022-10-11T17:38:24.432Z,0
2022-10-11T17:44:47.502Z,0
2022-10-11T17:51:07.611Z,0
2022-10-11T17:57:30.432Z,0
2022-10-11T18:03:50.468Z,0
2022-10-11T18:10:13.370Z,0
2022-10-11T18:16:33.436Z,0
2022-10-11T18:22:56.373Z,0
2022-10-11T18:29:16.334Z,0
2022-10-11T18:35:39.417Z,0
2022-10-11T18:41:59.419Z,0
2022-10-11T18:48:22.375Z,0
2022-10-11T19:12:22.408Z,0
2022-10-11T19:18:44.345Z,0
2022-10-11T19:25:05.348Z,0
2022-10-11T19:31:25.357Z,0
2022-10-11T19:37:48.567Z,0
2022-10-11T19:44:08.549Z,0
2022-10-11T19:50:31.449Z,0
2022-10-11T19:56:51.419Z,0
2022-10-11T20:03:14.394Z,0
2022-10-11T20:09:34.419Z,0
2022-10-11T20:15:57.394Z,0
2022-10-11T20:22:17.321Z,0
2022-10-11T20:28:40.469Z,0
2022-10-11T20:35:00.386Z,0
2022-10-11T20:41:23.417Z,0
2022-10-11T20:47:43.383Z,0
2022-10-11T20:54:06.327Z,0
2022-10-11T21:00:26.356Z,0
2022-10-11T21:06:49.385Z,0
2022-10-11T21:13:09.367Z,0
2022-10-11T21:19:32.320Z,0
2022-10-11T21:25:52.389Z,0
2022-10-11T21:32:15.418Z,0
2022-10-11T21:38:35.382Z,0
2022-10-11T21:44:58.434Z,0
2022-10-11T21:51:18.405Z,0
2022-10-11T21:57:41.369Z,0
2022-10-11T22:20:38.374Z,0
2022-10-11T22:26:58.323Z,0
2022-10-11T22:33:21.359Z,0
2022-10-11T22:39:41.588Z,0
2022-10-11T22:46:04.407Z,0
2022-10-11T22:52:24.428Z,0
2022-10-11T22:58:47.462Z,0
2022-10-11T23:05:07.489Z,0
2022-10-11T23:11:30.329Z,0
2022-10-11T23:17:50.364Z,0
2022-10-11T23:24:13.411Z,0
2022-10-11T23:30:33.471Z,0
2022-10-11T23:36:56.407Z,0
2022-10-11T23:43:16.454Z,0
2022-10-11T23:49:39.436Z,0
2022-10-11T23:55:59.419Z,0
